Wenceslau Guimaraes, Brazil
Current Conditions -  °F | °C
As of 12:00 PM on Tuesday 21 Oct 2014 (Local Time) from SBIL Reporting Station
Scattered Clouds Scattered Clouds  
Wind Chill: 82°   Ceiling: Unl
Heat Index: 86°   Visibility: 6mi
Dew Point: 70°   Wind: 12mph
Humidity: 66%   Direction: 60°ENE
Pressure: 29.97"   Gusts: NA
Location:  13.69°S, 39.48°W
Report Text: SBIL 211500Z 06010KT 9999 SCT025 FEW030TCU 28/21 Q1015
Loading
Personal Weather Stations






























Interactive Weather Map
Tropical Storm Tracking
New forecast layout! Learn more

10-Day Weather Forecast

Advertisements
Track Severe Weather on mobile